Time;durP1;ratioP1;P1;durP2;ratioP2;P2;SDS_P1;SDS_P2;PMS_P1;PMS_P2;Temp;Humidity;BMP_temperature;BMP_pressure;BME280_temperature;BME280_humidity;BME280_pressure;Samples;Min_cycle;Max_cycle;Signal;HPM_P1;HPM_P2
2021/06/25 00:00:06;;;;;;;;;;;;;;;14.92;100.00;96217.97;1049148;28;19956;-75
2021/06/25 00:00:36;;;;;;;;;;;;;;;14.95;100.00;96220.88;1049246;28;19919;-74
2021/06/25 00:01:07;;;;;;;;;;;;;;;14.95;100.00;96217.41;1048996;28;19912;-75
2021/06/25 00:01:37;;;;;;;;;;;;;;;14.94;100.00;96219.25;1049186;28;19913;-75
2021/06/25 00:02:07;;;;;;;;;;;;;;;14.95;100.00;96217.41;1049157;28;19955;-75
2021/06/25 00:02:38;;;;;;;;;;;;;;;14.98;100.00;96217.59;1049194;28;19913;-75
2021/06/25 00:03:08;;;;;;;;;;;;;;;14.98;100.00;96220.28;1049165;28;20339;-75
2021/06/25 00:03:39;;;;;;;;;;;;;;;14.96;100.00;96216.31;1049104;28;20293;-75
2021/06/25 00:04:09;;;;;;;;;;;;;;;14.96;100.00;96217.09;1049184;28;20009;-74
2021/06/25 00:04:39;;;;;;;;;;;;;;;14.95;100.00;96220.09;1049174;28;19900;-74
2021/06/25 00:05:10;;;;;;;;;;;;;;;14.95;100.00;96214.72;1048861;28;19908;-74
2021/06/25 00:05:40;;;;;;;;;;;;;;;14.93;100.00;96214.19;1048920;28;20285;-74
2021/06/25 00:06:10;;;;;;;;;;;;;;;14.92;100.00;96221.47;1048791;28;19924;-75
2021/06/25 00:06:40;;;;;;;;;;;;;;;14.92;100.00;96216.09;1048882;28;19962;-74
2021/06/25 00:07:11;;;;;;;;;;;;;;;14.91;100.00;96214.47;1049186;28;19920;-75
2021/06/25 00:07:41;;;;;;;;;;;;;;;14.89;100.00;96215.84;1049271;28;19915;-75
2021/06/25 00:08:11;;;;;;;;;;;;;;;14.84;100.00;96216.72;1049150;28;19927;-74
2021/06/25 00:08:42;;;;;;;;;;;;;;;14.81;100.00;96215.44;1049188;28;19962;-74
2021/06/25 00:09:12;;;;;;;;;;;;;;;14.82;100.00;96208.16;1049193;28;20353;-74
2021/06/25 00:09:42;;;;;;;;;;;;;;;14.80;100.00;96208.47;1049247;28;19955;-75
2021/06/25 00:10:12;;;;;;;;;;;;;;;14.80;100.00;96218.41;1049089;28;19931;-74
2021/06/25 00:10:43;;;;;;;;;;;;;;;14.80;100.00;96216.53;1049242;28;19919;-74
2021/06/25 00:11:13;;;;;;;;;;;;;;;14.78;100.00;96216.00;1049099;28;19916;-74
2021/06/25 00:11:43;;;;;;;;;;;;;;;14.80;100.00;96215.72;1049095;28;19924;-75
2021/06/25 00:12:14;;;;;;;;;;;;;;;14.79;100.00;96220.31;1048990;28;19967;-74
2021/06/25 00:12:44;;;;;;;;;;;;;;;14.79;100.00;96212.25;1049111;28;20423;-75
2021/06/25 00:13:14;;;;;;;;;;;;;;;14.76;100.00;96215.50;1048932;28;19912;-74
2021/06/25 00:13:44;;;;;;;;;;;;;;;14.73;100.00;96217.97;1049208;28;19920;-74
2021/06/25 00:14:20;;;;;;;;;;;;;;;14.72;100.00;96216.38;1049080;28;19909;-74
2021/06/25 00:14:50;;;;;;;;;;;;;;;14.76;100.00;96220.09;1049159;28;20421;-75
2021/06/25 00:15:21;;;;;;;;;;;;;;;14.75;100.00;96218.50;1049182;28;19912;-74
2021/06/25 00:15:51;;;;;;;;;;;;;;;14.75;100.00;96218.50;1049137;28;19917;-74
2021/06/25 00:16:21;;;;;;;;;;;;;;;14.77;100.00;96217.09;1049144;28;20158;-74
2021/06/25 00:16:52;;;;;;;;;;;;;;;14.76;100.00;96214.72;1049152;28;19924;-75
2021/06/25 00:17:22;;;;;;;;;;;;;;;14.77;100.00;96219.78;1049226;28;20284;-74
2021/06/25 00:17:53;;;;;;;;;;;;;;;14.78;100.00;96220.59;1049102;28;19939;-74
2021/06/25 00:18:23;;;;;;;;;;;;;;;14.77;100.00;96211.72;1049226;28;19915;-74
2021/06/25 00:18:54;;;;;;;;;;;;;;;14.75;100.00;96221.19;1049106;28;19948;-74
2021/06/25 00:19:24;;;;;;;;;;;;;;;14.75;100.00;96221.19;1049220;28;19916;-74
2021/06/25 00:19:54;;;;;;;;;;;;;;;14.75;100.00;96221.19;1048755;28;20373;-74
2021/06/25 00:20:25;;;;;;;;;;;;;;;14.77;100.00;96222.47;1048887;28;19912;-74
2021/06/25 00:20:55;;;;;;;;;;;;;;;14.78;100.00;96221.38;1048722;28;19917;-74
2021/06/25 00:21:25;;;;;;;;;;;;;;;14.78;100.00;96220.59;1048882;28;19912;-74
2021/06/25 00:21:56;;;;;;;;;;;;;;;14.77;100.00;96219.78;1049153;28;20297;-74
2021/06/25 00:22:26;;;;;;;;;;;;;;;14.76;100.00;96220.09;1049405;28;19932;-74
2021/06/25 00:22:57;;;;;;;;;;;;;;;14.80;100.00;96215.72;1049072;28;19916;-75
2021/06/25 00:23:27;;;;;;;;;;;;;;;14.77;100.00;96219.78;1048691;28;19924;-74
2021/06/25 00:23:57;;;;;;;;;;;;;;;14.78;100.00;96221.38;1048743;28;19920;-75
2021/06/25 00:24:27;;;;;;;;;;;;;;;14.77;100.00;96219.78;1048916;28;20464;-75
2021/06/25 00:24:58;;;;;;;;;;;;;;;14.74;100.00;96219.56;1048751;28;19924;-74
2021/06/25 00:25:28;;;;;;;;;;;;;;;14.73;100.00;96217.97;1049228;28;19915;-74
2021/06/25 00:25:58;;;;;;;;;;;;;;;14.72;100.00;96217.16;1049298;28;19916;-75
2021/06/25 00:26:28;;;;;;;;;;;;;;;14.71;100.00;96212.09;1049899;28;19917;-75
2021/06/25 00:26:59;;;;;;;;;;;;;;;14.71;100.00;96212.88;1051341;28;19921;-74
2021/06/25 00:27:29;;;;;;;;;;;;;;;14.70;100.00;96211.28;1051083;28;20349;-75
2021/06/25 00:27:59;;;;;;;;;;;;;;;14.69;100.00;96217.75;1050957;28;19963;-74
2021/06/25 00:28:30;;;;;;;;;;;;;;;14.71;100.00;96214.78;1050957;28;19908;-76
2021/06/25 00:29:00;;;;;;;;;;;;;;;14.71;100.00;96212.09;1051423;28;19954;-75
2021/06/25 00:29:30;;;;;;;;;;;;;;;14.68;100.00;96218.84;1049924;28;19912;-74
2021/06/25 00:30:00;;;;;;;;;;;;;;;14.73;100.00;96216.06;1049322;28;19979;-74
2021/06/25 00:30:31;;;;;;;;;;;;;;;14.74;100.00;96214.19;1049244;28;20273;-74
2021/06/25 00:31:01;;;;;;;;;;;;;;;14.71;100.00;96210.19;1049084;28;19913;-75
2021/06/25 00:31:31;;;;;;;;;;;;;;;14.69;100.00;96214.25;1049498;28;19920;-74
2021/06/25 00:32:02;;;;;;;;;;;;;;;14.70;100.00;96218.56;1049558;28;19940;-74
2021/06/25 00:32:32;;;;;;;;;;;;;;;14.65;100.00;96210.56;1051411;28;19921;-74
2021/06/25 00:33:02;;;;;;;;;;;;;;;14.63;100.00;96213.53;1051449;28;19919;-74
2021/06/25 00:33:33;;;;;;;;;;;;;;;14.66;100.00;96221.03;1051586;28;19923;-74
2021/06/25 00:34:03;;;;;;;;;;;;;;;14.63;100.00;96213.53;1050962;28;20262;-74
2021/06/25 00:34:33;;;;;;;;;;;;;;;14.65;100.00;96213.25;1049661;28;20346;-75
2021/06/25 00:35:04;;;;;;;;;;;;;;;14.64;100.00;96214.31;1049153;28;19948;-74
2021/06/25 00:35:34;;;;;;;;;;;;;;;14.60;100.00;96216.00;1049204;28;20053;-75
2021/06/25 00:36:05;;;;;;;;;;;;;;;14.60;100.00;96218.69;1049181;28;20280;-75
2021/06/25 00:36:35;;;;;;;;;;;;;;;14.57;100.00;96218.16;1049078;28;19935;-75
2021/06/25 00:37:06;;;;;;;;;;;;;;;14.55;100.00;96209.59;1049063;28;20431;-73
2021/06/25 00:37:36;;;;;;;;;;;;;;;14.54;100.00;96216.09;1048762;28;19909;-75
2021/06/25 00:38:06;;;;;;;;;;;;;;;14.53;100.00;96211.75;1048720;28;19909;-74
2021/06/25 00:38:36;;;;;;;;;;;;;;;14.52;100.00;96218.25;1048809;28;19915;-74
2021/06/25 00:39:07;;;;;;;;;;;;;;;14.53;100.00;96211.75;1048874;28;19909;-74
2021/06/25 00:39:37;;;;;;;;;;;;;;;14.53;100.00;96211.75;1049063;28;19919;-74
2021/06/25 00:40:08;;;;;;;;;;;;;;;14.54;100.00;96220.66;1049108;28;20324;-74
2021/06/25 00:40:38;;;;;;;;;;;;;;;14.55;100.00;96216.88;1049113;28;19913;-75
2021/06/25 00:41:08;;;;;;;;;;;;;;;14.55;100.00;96217.66;1048837;28;19975;-74
2021/06/25 00:41:39;;;;;;;;;;;;;;;14.57;100.00;96215.47;1048998;28;20382;-74
2021/06/25 00:42:09;;;;;;;;;;;;;;;14.55;100.00;96217.66;1049069;28;19912;-74
2021/06/25 00:42:39;;;;;;;;;;;;;;;14.56;100.00;96218.47;1049057;28;20394;-75
2021/06/25 00:43:09;;;;;;;;;;;;;;;14.50;100.00;96209.69;1049160;28;20280;-74
2021/06/25 00:43:40;;;;;;;;;;;;;;;14.51;100.00;96215.84;1049010;28;20387;-74
2021/06/25 00:44:14;;;;;;;;;;;;;;;14.50;100.00;96215.06;1048671;28;19920;-74
2021/06/25 00:44:45;;;;;;;;;;;;;;;14.49;100.00;96216.16;1048629;28;19966;-74
2021/06/25 00:45:16;;;;;;;;;;;;;;;14.47;100.00;96212.94;1048732;28;20271;-74
2021/06/25 00:45:46;;;;;;;;;;;;;;;14.47;100.00;96221.00;1048690;28;19919;-75
2021/06/25 00:46:17;;;;;;;;;;;;;;;14.45;100.00;96212.41;1049063;28;19930;-74
2021/06/25 00:46:47;;;;;;;;;;;;;;;14.45;100.00;96217.78;1049066;28;19964;-75
2021/06/25 00:47:17;;;;;;;;;;;;;;;14.42;100.00;96210.28;1049011;28;20008;-74
2021/06/25 00:47:48;;;;;;;;;;;;;;;14.37;100.00;96210.34;1048957;28;20281;-75
2021/06/25 00:48:18;;;;;;;;;;;;;;;14.40;100.00;96211.66;1049069;28;19912;-74
2021/06/25 00:48:49;;;;;;;;;;;;;;;14.41;100.00;96210.56;1049019;28;19912;-74
2021/06/25 00:49:19;;;;;;;;;;;;;;;14.43;100.00;96211.88;1049081;28;19995;-75
2021/06/25 00:49:50;;;;;;;;;;;;;;;14.43;100.00;96213.75;1048921;28;19913;-75
2021/06/25 00:50:21;;;;;;;;;;;;;;;14.44;100.00;96208.13;1049092;28;19913;-74
2021/06/25 00:50:51;;;;;;;;;;;;;;;14.39;100.00;96210.06;1049044;28;20286;-75
2021/06/25 00:51:21;;;;;;;;;;;;;;;14.38;100.00;96211.13;1049018;28;19917;-74
2021/06/25 00:51:52;;;;;;;;;;;;;;;14.40;100.00;96214.34;1049015;28;19930;-74
2021/06/25 00:52:22;;;;;;;;;;;;;;;14.42;100.00;96212.16;1049115;28;20325;-75
2021/06/25 00:52:53;;;;;;;;;;;;;;;14.43;100.00;96213.75;1048786;28;19904;-74
2021/06/25 00:53:23;;;;;;;;;;;;;;;14.41;100.00;96211.38;1048754;28;19987;-74
2021/06/25 00:53:53;;;;;;;;;;;;;;;14.38;100.00;96211.94;1048658;28;19912;-74
2021/06/25 00:54:24;;;;;;;;;;;;;;;14.35;100.00;96206.34;1048801;28;19997;-74
2021/06/25 00:54:54;;;;;;;;;;;;;;;14.36;100.00;96210.63;1048984;28;19904;-74
2021/06/25 00:55:24;;;;;;;;;;;;;;;14.35;100.00;96206.34;1048704;28;19948;-74
2021/06/25 00:55:55;;;;;;;;;;;;;;;14.36;100.00;96208.75;1048698;28;19912;-74
2021/06/25 00:56:25;;;;;;;;;;;;;;;14.40;100.00;96212.47;1048750;28;19999;-75
2021/06/25 00:56:55;;;;;;;;;;;;;;;14.35;100.00;96209.84;1048790;28;19905;-74
2021/06/25 00:57:26;;;;;;;;;;;;;;;14.32;100.00;96205.81;1048975;28;20324;-74
2021/06/25 00:57:56;;;;;;;;;;;;;;;14.30;100.00;96208.00;1048984;28;19904;-74
2021/06/25 00:58:26;;;;;;;;;;;;;;;14.26;100.00;96206.97;1049045;28;19912;-74
2021/06/25 00:58:56;;;;;;;;;;;;;;;14.25;100.00;96201.91;1049013;28;19904;-74
2021/06/25 00:59:27;;;;;;;;;;;;;;;14.23;100.00;96204.09;1048897;28;19946;-74
2021/06/25 00:59:57;;;;;;;;;;;;;;;14.23;100.00;96206.78;1048683;28;19927;-74
2021/06/25 01:00:27;;;;;;;;;;;;;;;14.20;100.00;96205.44;1048940;28;19923;-74
2021/06/25 01:00:58;;;;;;;;;;;;;;;14.20;100.00;96210.03;1049024;28;20334;-74
2021/06/25 01:01:28;;;;;;;;;;;;;;;14.19;100.00;96209.22;1048908;28;19916;-74
2021/06/25 01:01:58;;;;;;;;;;;;;;;14.18;100.00;96206.84;1048976;28;19908;-74
2021/06/25 01:02:28;;;;;;;;;;;;;;;14.16;100.00;96212.47;1049022;28;19909;-74
2021/06/25 01:03:00;;;;;;;;;;;;;;;14.17;100.00;96211.38;1048956;28;20366;-75
2021/06/25 01:03:31;;;;;;;;;;;;;;;14.16;100.00;96209.78;1049053;28;19909;-75
2021/06/25 01:04:01;;;;;;;;;;;;;;;14.19;100.00;96206.53;1048991;28;20017;-74
2021/06/25 01:04:31;;;;;;;;;;;;;;;14.20;100.00;96210.03;1048936;28;19904;-74
2021/06/25 01:05:03;;;;;;;;;;;;;;;14.16;100.00;96204.41;1048964;28;19947;-74
2021/06/25 01:05:33;;;;;;;;;;;;;;;14.15;100.00;96205.50;1049101;28;20272;-75
2021/06/25 01:06:03;;;;;;;;;;;;;;;14.14;100.00;96209.28;1048977;28;19905;-74
2021/06/25 01:06:33;;;;;;;;;;;;;;;14.15;100.00;96207.41;1048899;28;19916;-74
2021/06/25 01:07:04;;;;;;;;;;;;;;;14.14;100.00;96203.91;1049021;28;19901;-74
2021/06/25 01:07:35;;;;;;;;;;;;;;;14.17;100.00;96207.91;1049028;28;19912;-74
2021/06/25 01:08:06;;;;;;;;;;;;;;;14.20;100.00;96201.97;1049021;28;19908;-74
2021/06/25 01:08:37;;;;;;;;;;;;;;;14.19;100.00;96209.22;1048806;28;20004;-75
2021/06/25 01:09:08;;;;;;;;;;;;;;;14.19;100.00;96211.13;1048666;28;19908;-74
2021/06/25 01:09:39;;;;;;;;;;;;;;;14.18;100.00;96212.22;1049074;28;20417;-74
2021/06/25 01:10:10;;;;;;;;;;;;;;;14.19;100.00;96208.44;1048612;28;19959;-74
2021/06/25 01:10:40;;;;;;;;;;;;;;;14.20;100.00;96207.34;1048722;28;20280;-74
2021/06/25 01:11:11;;;;;;;;;;;;;;;14.20;100.00;96208.13;1048639;28;19913;-74
2021/06/25 01:11:41;;;;;;;;;;;;;;;14.19;100.00;96208.44;1048738;28;20221;-75
2021/06/25 01:12:11;;;;;;;;;;;;;;;14.20;100.00;96210.03;1048658;28;19920;-75
2021/06/25 01:12:42;;;;;;;;;;;;;;;14.18;100.00;96209.53;1048847;28;19915;-75
2021/06/25 01:13:12;;;;;;;;;;;;;;;14.14;100.00;96208.50;1049010;28;19916;-75
2021/06/25 01:13:42;;;;;;;;;;;;;;;14.12;100.00;96208.75;1048922;28;20005;-75
2021/06/25 01:14:13;;;;;;;;;;;;;;;14.12;100.00;96210.66;1048642;28;19909;-74
2021/06/25 01:14:43;;;;;;;;;;;;;;;14.12;100.00;96208.75;1048639;28;19987;-73
2021/06/25 01:15:13;;;;;;;;;;;;;;;14.13;100.00;96215.75;1048698;28;19926;-74
2021/06/25 01:15:44;;;;;;;;;;;;;;;14.13;100.00;96210.38;1048709;28;19912;-74
2021/06/25 01:16:14;;;;;;;;;;;;;;;14.14;100.00;96205.81;1048670;28;19989;-74
2021/06/25 01:16:45;;;;;;;;;;;;;;;14.14;100.00;96216.56;1048963;28;19934;-74
2021/06/25 01:17:31;;;;;;;;;;;;;;;14.10;100.00;96218.22;1048929;28;19913;-74
2021/06/25 01:18:01;;;;;;;;;;;;;;;14.12;100.00;96216.81;1048476;28;20471;-75
2021/06/25 01:18:32;;;;;;;;;;;;;;;14.12;100.00;96210.66;1048705;28;19920;-74
2021/06/25 01:19:02;;;;;;;;;;;;;;;14.14;100.00;96217.34;1048619;28;19919;-74
2021/06/25 01:19:33;;;;;;;;;;;;;;;14.15;100.00;96215.47;1048696;28;19913;-73
2021/06/25 01:20:05;;;;;;;;;;;;;;;14.15;100.00;96218.16;1048986;28;20344;-74
2021/06/25 01:20:35;;;;;;;;;;;;;;;14.14;100.00;96216.56;1049020;28;19971;-75
2021/06/25 01:21:06;;;;;;;;;;;;;;;14.12;100.00;96211.44;1048900;28;20469;-74
2021/06/25 01:21:36;;;;;;;;;;;;;;;14.14;100.00;96220.03;1048649;28;19947;-74
2021/06/25 01:22:06;;;;;;;;;;;;;;;14.15;100.00;96218.16;1048642;28;20403;-74
2021/06/25 01:22:40;;;;;;;;;;;;;;;14.15;100.00;96220.84;1048706;28;19912;-74
2021/06/25 01:23:11;;;;;;;;;;;;;;;14.16;100.00;96220.53;1048678;28;19913;-74
2021/06/25 01:23:42;;;;;;;;;;;;;;;14.15;100.00;96221.63;1048949;28;19954;-74
2021/06/25 01:24:12;;;;;;;;;;;;;;;14.17;100.00;96215.97;1049012;28;19919;-74
2021/06/25 01:24:43;;;;;;;;;;;;;;;14.17;100.00;96218.66;1048937;28;20406;-74
2021/06/25 01:25:16;;;;;;;;;;;;;;;14.17;100.00;96216.75;1048906;28;20354;-74
2021/06/25 01:25:46;;;;;;;;;;;;;;;14.13;100.00;96221.13;1048947;28;19919;-74
2021/06/25 01:26:17;;;;;;;;;;;;;;;14.09;100.00;96219.31;1048948;28;19908;-74
2021/06/25 01:26:47;;;;;;;;;;;;;;;14.07;100.00;96218.78;1048957;28;20610;-74
2021/06/25 01:27:17;;;;;;;;;;;;;;;14.07;100.00;96216.88;1048925;28;20009;-74
2021/06/25 01:27:48;;;;;;;;;;;;;;;14.10;100.00;96218.22;1048916;28;19935;-74
2021/06/25 01:28:19;;;;;;;;;;;;;;;14.11;100.00;96217.13;1048973;28;20281;-74
2021/06/25 01:28:49;;;;;;;;;;;;;;;14.12;100.00;96222.19;1048937;28;19955;-74
2021/06/25 01:29:19;;;;;;;;;;;;;;;14.14;100.00;96214.66;1048920;28;19908;-74
2021/06/25 01:29:50;;;;;;;;;;;;;;;14.12;100.00;96219.50;1048678;28;19912;-74
2021/06/25 01:30:30;;;;;;;;;;;;;;;14.14;100.00;96217.34;1048711;28;19917;-74
2021/06/25 01:31:01;;;;;;;;;;;;;;;14.17;100.00;96215.97;1048599;28;19962;-74
2021/06/25 01:31:31;;;;;;;;;;;;;;;14.18;100.00;96214.91;1048720;28;20348;-74
2021/06/25 01:32:01;;;;;;;;;;;;;;;14.18;100.00;96214.91;1049002;28;19904;-73
2021/06/25 01:32:32;;;;;;;;;;;;;;;14.17;100.00;96219.44;1048958;28;19920;-74
2021/06/25 01:33:03;;;;;;;;;;;;;;;14.16;100.00;96219.75;1048782;28;19940;-74
2021/06/25 01:33:33;;;;;;;;;;;;;;;14.17;100.00;96214.06;1048964;28;20377;-74
2021/06/25 01:34:05;;;;;;;;;;;;;;;14.19;100.00;96214.59;1048998;28;19904;-74
2021/06/25 01:34:35;;;;;;;;;;;;;;;14.21;100.00;96217.78;1048956;28;19916;-74
2021/06/25 01:35:06;;;;;;;;;;;;;;;14.14;100.00;96219.25;1048950;28;19943;-74
2021/06/25 01:35:36;;;;;;;;;;;;;;;14.08;100.00;96220.41;1048852;28;20365;-74
2021/06/25 01:36:06;;;;;;;;;;;;;;;14.07;100.00;96222.25;1048692;28;20003;-74
2021/06/25 01:36:37;;;;;;;;;;;;;;;14.07;100.00;96216.88;1048685;28;19970;-74
2021/06/25 01:37:07;;;;;;;;;;;;;;;14.02;100.00;96215.09;1044393;28;20350;-74
2021/06/25 01:37:37;;;;;;;;;;;;;;;14.03;100.00;96215.88;1044452;28;19905;-75
2021/06/25 01:38:08;;;;;;;;;;;;;;;14.05;100.00;96217.19;1048611;28;19901;-74
2021/06/25 01:38:38;;;;;;;;;;;;;;;14.03;100.00;96216.66;1048677;28;19911;-74
2021/06/25 01:39:09;;;;;;;;;;;;;;;14.01;100.00;96221.50;1048571;28;20041;-74
2021/06/25 01:39:39;;;;;;;;;;;;;;;14.01;100.00;96218.81;1048658;28;19900;-74
2021/06/25 01:40:11;;;;;;;;;;;;;;;14.02;100.00;96215.09;1048644;28;19900;-74
2021/06/25 01:40:41;;;;;;;;;;;;;;;14.03;100.00;96218.56;1048683;28;19904;-74
2021/06/25 01:41:11;;;;;;;;;;;;;;;14.03;100.00;96216.66;1048808;28;19911;-74
2021/06/25 01:41:42;;;;;;;;;;;;;;;14.03;100.00;96218.56;1048518;28;19927;-74
2021/06/25 01:42:12;;;;;;;;;;;;;;;14.03;100.00;96215.88;1048582;28;19905;-75
2021/06/25 01:42:43;;;;;;;;;;;;;;;14.08;100.00;96217.72;1048612;28;20055;-74
2021/06/25 01:43:13;;;;;;;;;;;;;;;14.05;100.00;96219.88;1048589;28;19997;-74
2021/06/25 01:43:43;;;;;;;;;;;;;;;14.09;100.00;96214.72;1048745;28;20014;-74
2021/06/25 01:44:13;;;;;;;;;;;;;;;14.07;100.00;96216.88;1044970;28;19901;-75
2021/06/25 01:44:44;;;;;;;;;;;;;;;14.02;100.00;96215.09;1044444;28;19944;-74
2021/06/25 01:45:16;;;;;;;;;;;;;;;14.03;100.00;96216.66;1040334;28;19905;-74
2021/06/25 01:45:46;;;;;;;;;;;;;;;14.07;100.00;96216.09;1044535;28;20370;-74
2021/06/25 01:46:16;;;;;;;;;;;;;;;14.02;100.00;96217.75;1044555;28;20000;-74
2021/06/25 01:46:47;;;;;;;;;;;;;;;14.02;100.00;96214.25;1048670;28;19961;-74
2021/06/25 01:47:17;;;;;;;;;;;;;;;14.05;100.00;96211.00;1048493;28;19907;-74
2021/06/25 01:47:48;;;;;;;;;;;;;;;14.05;100.00;96211.81;1048599;28;20408;-74
2021/06/25 01:48:18;;;;;;;;;;;;;;;14.04;100.00;96210.22;1048560;28;19900;-74
2021/06/25 01:48:48;;;;;;;;;;;;;;;14.04;100.00;96212.09;1048658;28;19912;-74
2021/06/25 01:49:18;;;;;;;;;;;;;;;14.03;100.00;96214.00;1048891;28;19905;-74
2021/06/25 01:49:49;;;;;;;;;;;;;;;14.01;100.00;96204.59;1048662;28;19904;-74
2021/06/25 01:50:20;;;;;;;;;;;;;;;14.03;100.00;96208.63;1044376;28;20281;-74
2021/06/25 01:50:50;;;;;;;;;;;;;;;14.07;100.00;96211.50;1044500;28;20381;-74
2021/06/25 01:51:20;;;;;;;;;;;;;;;14.08;100.00;96215.03;1044501;28;19916;-73
2021/06/25 01:51:50;;;;;;;;;;;;;;;14.05;100.00;96216.38;1048637;28;19917;-74
2021/06/25 01:52:21;;;;;;;;;;;;;;;14.08;100.00;96213.13;1048895;28;19908;-74
2021/06/25 01:52:52;;;;;;;;;;;;;;;14.07;100.00;96205.34;1048991;28;19958;-73
2021/06/25 01:53:24;;;;;;;;;;;;;;;14.03;100.00;96214.00;1048946;28;19913;-74
2021/06/25 01:53:54;;;;;;;;;;;;;;;14.01;100.00;96209.97;1048958;28;19956;-74
2021/06/25 01:54:24;;;;;;;;;;;;;;;14.00;100.00;96209.16;1048894;28;19918;-74
2021/06/25 01:54:55;;;;;;;;;;;;;;;14.01;100.00;96216.13;1048923;28;20254;-74
2021/06/25 01:55:25;;;;;;;;;;;;;;;14.00;100.00;96214.53;1048855;28;19912;-74
2021/06/25 01:55:57;;;;;;;;;;;;;;;14.03;100.00;96213.19;1048715;28;19916;-74
2021/06/25 01:56:28;;;;;;;;;;;;;;;14.02;100.00;96209.72;1048468;28;20347;-74
2021/06/25 01:56:58;;;;;;;;;;;;;;;14.03;100.00;96216.66;1048601;28;19912;-75
2021/06/25 01:57:31;;;;;;;;;;;;;;;14.03;100.00;96216.66;1048579;28;19912;-75
2021/06/25 01:58:01;;;;;;;;;;;;;;;14.03;100.00;96211.28;1048649;28;20062;-73
2021/06/25 01:58:31;;;;;;;;;;;;;;;14.03;100.00;96211.28;1048835;28;19916;-73
2021/06/25 01:59:02;;;;;;;;;;;;;;;14.02;100.00;96201.66;1048891;28;20376;-73
2021/06/25 01:59:32;;;;;;;;;;;;;;;14.04;100.00;96207.53;1048647;28;19962;-74
2021/06/25 02:00:03;;;;;;;;;;;;;;;14.07;100.00;96210.72;1048416;28;19919;-74
2021/06/25 02:00:33;;;;;;;;;;;;;;;14.03;100.00;96208.63;1048441;28;19916;-74
2021/06/25 02:01:03;;;;;;;;;;;;;;;14.07;100.00;96208.03;1048489;28;20376;-74
2021/06/25 02:01:34;;;;;;;;;;;;;;;14.08;100.00;96209.66;1048917;28;19919;-74
2021/06/25 02:02:04;;;;;;;;;;;;;;;14.10;100.00;96208.25;1048873;28;19912;-74
2021/06/25 02:02:34;;;;;;;;;;;;;;;14.07;100.00;96208.81;1048865;28;20358;-74
2021/06/25 02:03:04;;;;;;;;;;;;;;;14.07;100.00;96208.03;1048898;28;19923;-74
2021/06/25 02:03:35;;;;;;;;;;;;;;;14.04;100.00;96207.53;1048752;28;19912;-74
2021/06/25 02:04:05;;;;;;;;;;;;;;;14.04;100.00;96209.41;1048813;28;20003;-75
2021/06/25 02:04:35;;;;;;;;;;;;;;;14.04;100.00;96202.16;1048891;28;19938;-73
2021/06/25 02:05:06;;;;;;;;;;;;;;;14.05;100.00;96214.50;1048852;28;19921;-74
2021/06/25 02:05:36;;;;;;;;;;;;;;;14.07;100.00;96208.03;1048855;28;20432;-74
2021/06/25 02:06:07;;;;;;;;;;;;;;;14.10;100.00;96208.25;1048633;28;19924;-74
2021/06/25 02:06:37;;;;;;;;;;;;;;;14.11;100.00;96207.16;1048626;28;19912;-74
2021/06/25 02:07:07;;;;;;;;;;;;;;;14.12;100.00;96210.66;1048630;28;19952;-74
2021/06/25 02:07:38;;;;;;;;;;;;;;;14.13;100.00;96214.97;1049750;28;19920;-74
2021/06/25 02:08:08;;;;;;;;;;;;;;;14.11;100.00;96206.38;1049834;28;19923;-74
2021/06/25 02:08:39;;;;;;;;;;;;;;;14.11;100.00;96209.06;1050139;28;19962;-74
2021/06/25 02:09:09;;;;;;;;;;;;;;;14.11;100.00;96201.00;1050075;28;20004;-74
2021/06/25 02:09:40;;;;;;;;;;;;;;;14.09;100.00;96200.50;1049799;28;19927;-74
2021/06/25 02:10:10;;;;;;;;;;;;;;;14.07;100.00;96206.13;1050379;28;19981;-74
2021/06/25 02:10:40;;;;;;;;;;;;;;;14.05;100.00;96200.25;1050511;28;19979;-74
2021/06/25 02:11:11;;;;;;;;;;;;;;;14.05;100.00;96198.38;1050490;28;19947;-74
2021/06/25 02:11:41;;;;;;;;;;;;;;;14.07;100.00;96205.34;1049510;28;19909;-73
2021/06/25 02:12:11;;;;;;;;;;;;;;;14.08;100.00;96204.28;1048655;28;20296;-75
2021/06/25 02:12:42;;;;;;;;;;;;;;;14.09;100.00;96203.19;1048589;28;19905;-74
2021/06/25 02:13:12;;;;;;;;;;;;;;;14.11;100.00;96207.16;1048737;28;19904;-74
2021/06/25 02:13:42;;;;;;;;;;;;;;;14.08;100.00;96206.97;1048529;28;19907;-74
2021/06/25 02:14:13;;;;;;;;;;;;;;;14.03;100.00;96200.56;1048656;28;20400;-74
2021/06/25 02:14:43;;;;;;;;;;;;;;;14.03;100.00;96200.56;1048709;28;19905;-74
2021/06/25 02:15:13;;;;;;;;;;;;;;;14.02;100.00;96201.66;1048669;28;20013;-74
2021/06/25 02:15:44;;;;;;;;;;;;;;;14.01;100.00;96202.72;1048698;28;19905;-74
2021/06/25 02:16:14;;;;;;;;;;;;;;;14.01;100.00;96205.38;1049826;28;19913;-73
2021/06/25 02:16:44;;;;;;;;;;;;;;;14.01;100.00;96196.53;1053163;28;19935;-74
2021/06/25 02:17:16;;;;;;;;;;;;;;;13.99;100.00;96207.56;1053519;28;19897;-74
2021/06/25 02:17:46;;;;;;;;;;;;;;;13.99;100.00;96199.50;1050350;28;19904;-74
2021/06/25 02:18:17;;;;;;;;;;;;;;;14.02;100.00;96207.00;1049061;28;19948;-73
2021/06/25 02:18:47;;;;;;;;;;;;;;;14.02;100.00;96207.00;1051720;28;19908;-74
2021/06/25 02:19:18;;;;;;;;;;;;;;;14.04;100.00;96206.72;1052144;28;19904;-73
2021/06/25 02:19:48;;;;;;;;;;;;;;;14.05;100.00;96214.50;1053667;28;19923;-73
2021/06/25 02:20:18;;;;;;;;;;;;;;;13.98;100.00;96205.97;1051990;28;19931;-75
2021/06/25 02:20:49;;;;;;;;;;;;;;;13.98;100.00;96202.50;1049965;28;19905;-75
2021/06/25 02:21:19;;;;;;;;;;;;;;;13.98;100.00;96208.66;1049304;28;19909;-74
2021/06/25 02:21:49;;;;;;;;;;;;;;;14.02;100.00;96211.56;1049820;28;20033;-74
2021/06/25 02:22:19;;;;;;;;;;;;;;;14.02;100.00;96203.50;1049652;28;19919;-74
2021/06/25 02:22:50;;;;;;;;;;;;;;;14.01;100.00;96207.28;1049628;28;19904;-74
2021/06/25 02:23:20;;;;;;;;;;;;;;;14.02;100.00;96204.34;1047036;28;19937;-76
2021/06/25 02:23:50;;;;;;;;;;;;;;;14.01;100.00;96209.97;1046945;28;19909;-74
2021/06/25 02:24:21;;;;;;;;;;;;;;;13.99;100.00;96204.09;1050312;28;19905;-75
2021/06/25 02:24:51;;;;;;;;;;;;;;;14.00;100.00;96209.16;1046623;28;19909;-74
2021/06/25 02:25:22;;;;;;;;;;;;;;;13.99;100.00;96204.88;1050367;28;19947;-75
2021/06/25 02:25:52;;;;;;;;;;;;;;;13.93;100.00;96197.97;1050330;28;19946;-74
2021/06/25 02:26:22;;;;;;;;;;;;;;;13.91;100.00;96202.81;1050645;28;20025;-75
2021/06/25 02:26:53;;;;;;;;;;;;;;;13.92;100.00;96206.31;1050787;28;19913;-75
2021/06/25 02:27:23;;;;;;;;;;;;;;;13.94;100.00;96207.63;1051082;28;20252;-74
2021/06/25 02:27:53;;;;;;;;;;;;;;;13.93;100.00;96200.66;1051223;28;19947;-75
2021/06/25 02:28:23;;;;;;;;;;;;;;;13.93;100.00;96202.56;1052262;28;19901;-74
2021/06/25 02:28:54;;;;;;;;;;;;;;;13.95;100.00;96203.84;1051751;28;19958;-75
2021/06/25 02:29:25;;;;;;;;;;;;;;;13.93;100.00;96200.66;1051315;28;19943;-74
2021/06/25 02:29:55;;;;;;;;;;;;;;;13.92;100.00;96199.06;1051280;28;19927;-74
2021/06/25 02:30:25;;;;;;;;;;;;;;;13.90;100.00;96195.06;1051190;28;19924;-74
2021/06/25 02:30:56;;;;;;;;;;;;;;;13.89;100.00;96199.63;1051126;28;19965;-74
2021/06/25 02:31:26;;;;;;;;;;;;;;;13.93;100.00;96194.50;1053067;28;19916;-74
2021/06/25 02:31:56;;;;;;;;;;;;;;;13.93;100.00;96194.50;1053121;28;20278;-74
2021/06/25 02:32:27;;;;;;;;;;;;;;;13.93;100.00;96197.19;1051455;28;19908;-74
2021/06/25 02:32:57;;;;;;;;;;;;;;;13.92;100.00;96198.25;1051264;28;19912;-74
2021/06/25 02:33:27;;;;;;;;;;;;;;;13.92;100.00;96196.38;1050976;28;19916;-74
2021/06/25 02:33:57;;;;;;;;;;;;;;;13.91;100.00;96197.44;1051634;28;19916;-74
2021/06/25 02:34:29;;;;;;;;;;;;;;;13.92;100.00;96201.75;1050966;28;20434;-74
2021/06/25 02:35:00;;;;;;;;;;;;;;;13.93;100.00;96195.28;1051525;28;19925;-74
2021/06/25 02:35:30;;;;;;;;;;;;;;;13.96;100.00;96200.06;1051235;28;19916;-75
2021/06/25 02:36:02;;;;;;;;;;;;;;;13.95;100.00;96198.47;1050922;28;19916;-75
2021/06/25 02:36:32;;;;;;;;;;;;;;;13.92;100.00;96199.06;1050726;28;20353;-74